createdAt,value
2018-06-09T00:02:08.468Z,16.30
2018-06-09T00:04:36.464Z,14.07
2018-06-09T00:07:04.504Z,18.67
2018-06-09T00:09:32.606Z,14.63
2018-06-09T00:12:00.874Z,16.07
2018-06-09T00:14:28.960Z,15.78
2018-06-09T00:16:57.012Z,16.30
2018-06-09T00:19:25.068Z,16.30
2018-06-09T00:21:53.102Z,14.63
2018-06-09T00:24:21.149Z,13.63
2018-06-09T00:26:49.224Z,16.27
2018-06-09T00:29:17.260Z,12.63
2018-06-09T00:31:45.300Z,13.27
2018-06-09T00:34:13.363Z,13.40
2018-06-09T00:36:41.394Z,16.47
2018-06-09T00:39:09.437Z,13.63
2018-06-09T00:41:37.493Z,12.07
2018-06-09T00:44:05.547Z,12.00
2018-06-09T00:46:33.623Z,15.33
2018-06-09T00:49:01.655Z,13.20
2018-06-09T00:51:30.860Z,13.87
2018-06-09T00:54:00.943Z,14.20
2018-06-09T00:56:40.363Z,12.83
2018-06-09T00:59:08.825Z,11.93
2018-06-09T01:01:36.852Z,13.07
2018-06-09T01:04:04.913Z,15.10
2018-06-09T01:06:32.943Z,14.30
2018-06-09T01:09:01.284Z,16.60
2018-06-09T01:11:29.308Z,13.07
2018-06-09T01:13:57.354Z,13.90
2018-06-09T01:16:25.420Z,13.17
2018-06-09T01:18:53.504Z,14.47
2018-06-09T01:21:21.572Z,14.53
2018-06-09T01:23:49.601Z,15.10
2018-06-09T01:26:17.635Z,18.10
2018-06-09T01:28:45.767Z,15.83
2018-06-09T01:31:13.808Z,17.50
2018-06-09T01:33:41.885Z,15.03
2018-06-09T01:36:09.903Z,18.13
2018-06-09T01:38:37.935Z,17.17
2018-06-09T01:41:05.987Z,16.57
2018-06-09T01:43:34.128Z,15.10
2018-06-09T01:46:02.196Z,16.10
2018-06-09T01:48:30.227Z,16.83
2018-06-09T01:50:58.326Z,12.97
2018-06-09T01:53:26.366Z,15.63
2018-06-09T01:55:54.403Z,15.43
2018-06-09T01:58:22.443Z,14.73
2018-06-09T02:00:50.488Z,16.23
2018-06-09T02:03:18.828Z,14.80
2018-06-09T02:05:46.853Z,18.17
2018-06-09T02:08:14.892Z,17.43
2018-06-09T02:10:42.947Z,16.67
2018-06-09T02:13:11.023Z,16.63
2018-06-09T02:15:39.514Z,15.83
2018-06-09T02:18:07.640Z,17.73
2018-06-09T02:20:35.930Z,18.20
2018-06-09T02:23:04.153Z,17.03
2018-06-09T02:25:32.810Z,17.70
2018-06-09T02:28:00.883Z,18.10
2018-06-09T02:30:28.924Z,18.40
2018-06-09T02:32:56.965Z,18.73
2018-06-09T02:35:25.017Z,17.73
2018-06-09T02:37:53.059Z,21.13
2018-06-09T02:40:21.120Z,22.33
2018-06-09T02:42:49.172Z,15.03
2018-06-09T02:45:17.230Z,21.13
2018-06-09T02:47:45.318Z,17.90
2018-06-09T02:50:13.363Z,17.20
2018-06-09T02:52:41.407Z,16.97
2018-06-09T02:55:09.452Z,18.30
2018-06-09T02:57:37.710Z,22.50
2018-06-09T03:00:05.764Z,17.33
2018-06-09T03:02:33.795Z,16.33
2018-06-09T03:05:02.004Z,15.97
2018-06-09T03:07:30.028Z,16.33
2018-06-09T03:09:58.055Z,16.83
2018-06-09T03:12:26.108Z,16.33
2018-06-09T03:14:54.147Z,17.27
2018-06-09T03:17:22.549Z,19.63
2018-06-09T03:19:50.579Z,17.47
2018-06-09T03:22:18.623Z,16.00
2018-06-09T03:24:46.647Z,20.40
2018-06-09T03:27:14.696Z,16.83
2018-06-09T03:29:42.727Z,19.93
2018-06-09T03:32:10.775Z,15.20
2018-06-09T03:34:38.815Z,19.80
2018-06-09T03:37:06.848Z,19.73
2018-06-09T03:39:34.897Z,16.47
2018-06-09T03:42:03.187Z,16.63
2018-06-09T03:44:31.216Z,16.13
2018-06-09T03:46:59.243Z,15.53
2018-06-09T03:49:27.576Z,19.93
2018-06-09T03:51:55.787Z,17.20
2018-06-09T03:54:23.811Z,17.27
2018-06-09T03:56:51.847Z,18.40
2018-06-09T03:59:20.495Z,15.70
2018-06-09T04:01:48.516Z,15.20
2018-06-09T04:04:16.564Z,16.63
2018-06-09T04:06:44.616Z,15.43
2018-06-09T04:09:12.664Z,17.93
2018-06-09T04:11:40.970Z,16.97
2018-06-09T04:14:08.999Z,17.20
2018-06-09T04:16:37.041Z,19.87
2018-06-09T04:19:05.103Z,17.13
2018-06-09T04:21:33.282Z,16.83
2018-06-09T04:24:01.457Z,16.40
2018-06-09T04:26:29.697Z,16.97
2018-06-09T04:28:58.091Z,15.73
2018-06-09T04:31:26.230Z,16.63
2018-06-09T04:33:54.296Z,17.60
2018-06-09T04:36:22.436Z,18.23
2018-06-09T04:38:50.480Z,24.97
2018-06-09T04:41:18.511Z,17.97
2018-06-09T04:43:46.568Z,17.20
2018-06-09T04:46:14.611Z,14.60
2018-06-09T04:48:42.635Z,19.63
2018-06-09T04:51:11.048Z,15.72
2018-06-09T04:53:39.067Z,16.67
2018-06-09T04:58:41.592Z,14.90
2018-06-09T05:01:09.618Z,15.93
2018-06-09T05:03:37.661Z,15.73
2018-06-09T05:06:05.706Z,13.98
2018-06-09T05:08:33.764Z,16.73
2018-06-09T05:11:01.824Z,13.68
2018-06-09T05:13:29.871Z,16.37
2018-06-09T05:15:58.046Z,16.93
2018-06-09T05:18:26.228Z,14.83
2018-06-09T05:20:54.212Z,16.57
2018-06-09T05:23:22.251Z,15.95
2018-06-09T05:25:50.295Z,15.70
2018-06-09T05:28:18.318Z,18.70
2018-06-09T05:30:46.472Z,15.88
2018-06-09T05:33:14.520Z,14.83
2018-06-09T05:35:42.545Z,16.07
2018-06-09T05:38:10.604Z,14.33
2018-06-09T05:40:38.637Z,13.45
2018-06-09T05:43:06.687Z,13.18
2018-06-09T05:45:34.723Z,13.93
2018-06-09T05:48:02.759Z,18.55
2018-06-09T05:50:30.803Z,11.03
2018-06-09T05:52:58.856Z,11.63
2018-06-09T05:55:26.879Z,16.55
2018-06-09T05:57:55.080Z,10.72
2018-06-09T06:00:23.131Z,12.95
2018-06-09T06:02:51.203Z,10.88
2018-06-09T06:05:19.255Z,10.32
2018-06-09T06:07:47.268Z,11.97
2018-06-09T06:10:15.315Z,13.15
2018-06-09T06:12:43.347Z,13.88
2018-06-09T06:15:11.397Z,9.85
2018-06-09T06:17:39.427Z,10.90
2018-06-09T06:20:07.460Z,10.18
2018-06-09T06:22:35.503Z,9.83
2018-06-09T06:25:03.535Z,10.85
2018-06-09T06:27:31.548Z,12.85
2018-06-09T06:29:59.733Z,11.63
2018-06-09T06:32:27.744Z,12.07
2018-06-09T06:34:55.792Z,10.78
2018-06-09T06:37:24.103Z,12.05
2018-06-09T06:39:52.167Z,13.58
2018-06-09T06:42:20.192Z,10.90
2018-06-09T06:47:27.767Z,19.27
2018-06-09T06:49:55.824Z,15.18
2018-06-09T06:52:23.848Z,10.53
2018-06-09T06:54:51.922Z,10.75
2018-06-09T06:57:19.951Z,11.55
2018-06-09T06:59:48.005Z,12.47
2018-06-09T07:02:16.044Z,11.20
2018-06-09T07:04:44.091Z,11.18
2018-06-09T07:07:12.144Z,13.55
2018-06-09T07:09:40.247Z,12.13
2018-06-09T07:12:08.299Z,10.90
2018-06-09T07:14:36.348Z,11.30
2018-06-09T07:17:04.389Z,10.65
2018-06-09T07:19:32.431Z,11.53
2018-06-09T07:22:00.468Z,12.85
2018-06-09T07:24:28.518Z,11.50
2018-06-09T07:26:56.624Z,10.40
2018-06-09T07:29:24.691Z,12.85
2018-06-09T07:31:52.747Z,10.82
2018-06-09T07:34:20.856Z,29.12
2018-06-09T07:36:50.518Z,12.45
2018-06-09T07:39:18.915Z,11.75
2018-06-09T07:41:47.180Z,14.25
2018-06-09T07:44:15.367Z,13.55
2018-06-09T07:46:45.561Z,12.10
2018-06-09T07:49:13.629Z,11.73
2018-06-09T07:51:41.937Z,12.18
2018-06-09T07:54:09.996Z,14.58
2018-06-09T07:56:38.296Z,13.45
2018-06-09T07:59:06.355Z,13.22
2018-06-09T08:01:34.902Z,11.15
2018-06-09T08:04:02.946Z,12.68
2018-06-09T08:06:30.999Z,12.85
2018-06-09T08:08:59.399Z,12.78
2018-06-09T08:11:28.123Z,13.93
2018-06-09T08:13:56.726Z,15.90
2018-06-09T08:16:25.726Z,12.60
2018-06-09T08:18:53.883Z,12.35
2018-06-09T08:21:22.459Z,12.07
2018-06-09T08:23:50.775Z,10.15
2018-06-09T08:26:18.828Z,13.45
2018-06-09T08:28:47.214Z,13.40
2018-06-09T08:31:19.076Z,11.38
2018-06-09T08:33:49.233Z,12.28
2018-06-09T08:36:17.923Z,11.75
2018-06-09T08:38:46.975Z,13.72
2018-06-09T08:41:15.028Z,11.38
2018-06-09T08:43:43.070Z,10.58
2018-06-09T08:46:11.128Z,11.95
2018-06-09T08:48:39.394Z,12.18
2018-06-09T08:51:07.429Z,12.63
2018-06-09T08:53:35.592Z,11.12
2018-06-09T08:56:03.683Z,12.95
2018-06-09T08:58:31.747Z,11.18
2018-06-09T09:00:59.803Z,15.20
2018-06-09T09:03:27.835Z,11.00
2018-06-09T09:05:55.868Z,10.32
2018-06-09T09:08:23.920Z,11.73
2018-06-09T09:10:51.964Z,10.95
2018-06-09T09:13:20.008Z,12.45
2018-06-09T09:15:48.029Z,13.43
2018-06-09T09:18:16.075Z,13.28
2018-06-09T09:20:44.513Z,12.43
2018-06-09T09:23:12.540Z,11.38
2018-06-09T09:25:40.579Z,13.80
2018-06-09T09:28:08.743Z,13.40
2018-06-09T09:30:36.899Z,14.87
2018-06-09T09:33:05.256Z,13.53
2018-06-09T09:35:33.320Z,13.32
2018-06-09T09:38:01.396Z,12.00
2018-06-09T09:40:29.509Z,12.50
2018-06-09T09:42:58.239Z,12.88
2018-06-09T09:45:26.357Z,13.00
2018-06-09T09:47:54.435Z,15.10
2018-06-09T09:50:23.052Z,12.78
2018-06-09T09:52:51.916Z,11.83
2018-06-09T09:55:20.433Z,13.60
2018-06-09T09:57:58.272Z,13.00
2018-06-09T10:00:39.733Z,11.73
2018-06-09T10:03:11.994Z,11.97
2018-06-09T10:05:40.111Z,11.57
2018-06-09T10:08:08.160Z,11.88
2018-06-09T10:10:36.831Z,12.07
2018-06-09T10:13:06.487Z,14.07
2018-06-09T10:15:34.758Z,11.60
2018-06-09T10:18:02.943Z,12.53
2018-06-09T10:20:31.288Z,12.40
2018-06-09T10:23:00.285Z,11.78
2018-06-09T10:25:28.876Z,15.80
2018-06-09T10:27:57.003Z,12.43
2018-06-09T10:30:25.127Z,12.37
2018-06-09T10:32:53.228Z,13.13
2018-06-09T10:35:21.310Z,12.20
2018-06-09T10:37:49.331Z,11.22
2018-06-09T10:40:17.374Z,11.80
2018-06-09T10:42:45.502Z,11.20
2018-06-09T10:45:13.584Z,10.63
2018-06-09T10:47:41.739Z,11.93
2018-06-09T10:50:09.954Z,12.07
2018-06-09T10:52:37.999Z,13.18
2018-06-09T10:55:06.031Z,10.93
2018-06-09T10:57:34.111Z,12.85
2018-06-09T11:00:02.243Z,13.88
2018-06-09T11:02:30.279Z,11.70
2018-06-09T11:04:58.298Z,11.70
2018-06-09T11:07:26.378Z,11.95
2018-06-09T11:09:54.456Z,12.30
2018-06-09T11:12:22.504Z,17.15
2018-06-09T11:14:50.547Z,14.50
2018-06-09T11:17:18.580Z,12.53
2018-06-09T11:19:46.627Z,11.25
2018-06-09T11:22:14.671Z,15.32
2018-06-09T11:24:42.758Z,11.88
2018-06-09T11:27:10.907Z,12.82
2018-06-09T11:29:39.020Z,11.38
2018-06-09T11:32:07.302Z,11.57
2018-06-09T11:34:35.491Z,10.75
2018-06-09T11:37:03.723Z,11.00
2018-06-09T11:39:32.043Z,14.85
2018-06-09T11:42:00.176Z,11.25
2018-06-09T11:44:28.555Z,14.10
2018-06-09T11:46:56.919Z,10.80
2018-06-09T11:49:25.190Z,11.30
2018-06-09T11:51:53.247Z,12.50
2018-06-09T11:54:21.304Z,12.07
2018-06-09T11:56:49.371Z,12.65
2018-06-09T11:59:17.424Z,13.35
2018-06-09T12:01:45.533Z,12.75
2018-06-09T12:04:13.552Z,9.85
2018-06-09T12:06:41.691Z,11.90
2018-06-09T12:09:09.766Z,11.10
2018-06-09T12:11:37.808Z,11.38
2018-06-09T12:14:05.914Z,13.98
2018-06-09T12:16:33.951Z,13.00
2018-06-09T12:19:02.084Z,12.18
2018-06-09T12:21:30.282Z,13.68
2018-06-09T12:23:58.377Z,13.22
2018-06-09T12:26:27.443Z,11.50
2018-06-09T12:28:55.476Z,15.28
2018-06-09T12:31:23.512Z,13.60
2018-06-09T12:33:51.555Z,12.88
2018-06-09T12:36:19.705Z,12.55
2018-06-09T12:38:47.759Z,12.23
2018-06-09T12:41:15.788Z,10.90
2018-06-09T12:43:43.839Z,12.82
2018-06-09T12:46:11.880Z,12.68
2018-06-09T12:48:40.016Z,12.13
2018-06-09T12:51:08.084Z,14.25
2018-06-09T12:53:36.227Z,12.80
2018-06-09T12:56:04.307Z,14.07
2018-06-09T12:58:32.347Z,11.33
2018-06-09T13:01:00.419Z,9.55
2018-06-09T13:03:28.491Z,10.35
2018-06-09T13:05:57.205Z,12.80
2018-06-09T13:08:25.342Z,13.62
2018-06-09T13:10:53.398Z,11.43
2018-06-09T13:13:22.542Z,11.73
2018-06-09T13:15:50.924Z,14.65
2018-06-09T13:18:18.986Z,11.57
2018-06-09T13:20:47.028Z,10.48
2018-06-09T13:23:15.063Z,11.43
2018-06-09T13:25:43.481Z,10.70
2018-06-09T13:28:11.529Z,11.70
2018-06-09T13:30:39.757Z,10.13
2018-06-09T13:33:07.848Z,11.48
2018-06-09T13:35:36.159Z,11.83
2018-06-09T13:38:04.757Z,9.85
2018-06-09T13:40:33.456Z,9.05
2018-06-09T13:43:03.098Z,10.60
2018-06-09T13:45:31.363Z,12.50
2018-06-09T13:47:59.499Z,9.38
2018-06-09T13:50:27.755Z,10.45
2018-06-09T13:52:55.919Z,10.70
2018-06-09T13:55:23.932Z,9.70
2018-06-09T13:57:52.073Z,11.95
2018-06-09T14:00:20.165Z,9.88
2018-06-09T14:02:48.179Z,9.85
2018-06-09T14:05:16.251Z,10.08
2018-06-09T14:07:44.448Z,8.98
2018-06-09T14:10:12.667Z,8.35
2018-06-09T14:12:40.704Z,8.68
2018-06-09T14:15:09.160Z,8.78
2018-06-09T14:17:37.259Z,8.38
2018-06-09T14:20:05.267Z,9.50
2018-06-09T14:22:33.383Z,10.45
2018-06-09T14:25:01.581Z,9.60
2018-06-09T14:27:29.601Z,9.80
2018-06-09T14:29:57.653Z,9.28
2018-06-09T14:32:25.693Z,10.70
2018-06-09T14:34:53.965Z,8.90
2018-06-09T14:37:22.028Z,10.72
2018-06-09T14:39:50.427Z,10.15
2018-06-09T14:42:18.474Z,11.00
2018-06-09T14:44:46.536Z,10.58
2018-06-09T14:47:14.583Z,9.60
2018-06-09T14:49:42.611Z,7.70
2018-06-09T14:52:10.664Z,8.28
2018-06-09T14:54:38.691Z,13.13
2018-06-09T14:57:06.707Z,9.30
2018-06-09T14:59:34.790Z,9.30
2018-06-09T15:02:02.841Z,8.38
2018-06-09T15:04:30.887Z,7.90
2018-06-09T15:06:58.937Z,8.90
2018-06-09T15:09:26.980Z,9.13
2018-06-09T15:11:55.028Z,10.00
2018-06-09T15:14:23.175Z,8.53
2018-06-09T15:16:51.219Z,8.83
2018-06-09T15:19:19.241Z,9.45
2018-06-09T15:21:47.271Z,8.00
2018-06-09T15:24:15.320Z,9.03
2018-06-09T15:26:43.360Z,8.05
2018-06-09T15:29:11.416Z,8.35
2018-06-09T15:31:39.664Z,11.43
2018-06-09T15:34:08.269Z,8.05
2018-06-09T15:36:36.790Z,8.03
2018-06-09T15:39:07.226Z,8.40
2018-06-09T15:41:35.894Z,8.33
2018-06-09T15:44:04.777Z,8.25
2018-06-09T15:46:33.066Z,7.80
2018-06-09T15:49:01.880Z,8.60
2018-06-09T15:51:30.859Z,7.37
2018-06-09T15:54:00.418Z,7.62
2018-06-09T15:56:29.849Z,7.05
2018-06-09T15:58:59.652Z,8.35
2018-06-09T16:01:29.589Z,7.85
2018-06-09T16:03:59.229Z,8.28
2018-06-09T16:06:28.295Z,7.55
2018-06-09T16:08:57.259Z,9.13
2018-06-09T16:11:25.696Z,9.28
2018-06-09T16:13:53.791Z,7.50
2018-06-09T16:16:21.948Z,7.03
2018-06-09T16:18:49.972Z,8.50
2018-06-09T16:21:17.991Z,7.80
2018-06-09T16:23:46.028Z,6.97
2018-06-09T16:26:14.055Z,11.20
2018-06-09T16:28:42.107Z,9.20
2018-06-09T16:31:10.196Z,8.03
2018-06-09T16:33:38.324Z,7.67
2018-06-09T16:36:06.444Z,7.30
2018-06-09T16:38:34.521Z,7.95
2018-06-09T16:41:03.384Z,10.20
2018-06-09T16:43:32.102Z,9.00
2018-06-09T16:46:01.968Z,8.38
2018-06-09T16:48:32.016Z,8.68
2018-06-09T16:51:02.713Z,8.53
2018-06-09T16:53:32.305Z,7.28
2018-06-09T16:56:01.951Z,8.48
2018-06-09T16:58:31.455Z,7.65
2018-06-09T17:01:01.490Z,8.08
2018-06-09T17:03:31.263Z,8.38
2018-06-09T17:06:01.111Z,7.08
2018-06-09T17:08:30.807Z,8.05
2018-06-09T17:10:59.971Z,7.83
2018-06-09T17:13:30.582Z,8.05
2018-06-09T17:16:00.522Z,8.08
2018-06-09T17:18:29.863Z,7.35
2018-06-09T17:20:59.043Z,8.40
2018-06-09T17:23:28.411Z,8.15
2018-06-09T17:25:57.242Z,8.68
2018-06-09T17:28:25.877Z,8.33
2018-06-09T17:30:54.025Z,8.28
2018-06-09T17:33:22.071Z,8.33
2018-06-09T17:35:50.108Z,8.00
2018-06-09T17:38:18.163Z,8.63
2018-06-09T17:40:46.259Z,13.50
2018-06-09T17:43:14.302Z,9.08
2018-06-09T17:45:42.408Z,8.98
2018-06-09T17:48:10.543Z,9.40
2018-06-09T17:50:38.856Z,8.40
2018-06-09T17:53:06.903Z,9.10
2018-06-09T17:55:35.275Z,8.90
2018-06-09T17:58:05.527Z,8.65
2018-06-09T18:00:33.575Z,8.45
2018-06-09T18:03:01.597Z,9.03
2018-06-09T18:05:29.632Z,9.03
2018-06-09T18:07:57.961Z,8.90
2018-06-09T18:10:25.990Z,9.30
2018-06-09T18:12:54.219Z,8.80
2018-06-09T18:15:22.247Z,9.48
2018-06-09T18:17:50.481Z,10.08
2018-06-09T18:20:18.991Z,10.08
2018-06-09T18:22:47.909Z,9.85
2018-06-09T18:25:15.963Z,10.38
2018-06-09T18:27:44.575Z,10.70
2018-06-09T18:30:12.655Z,9.63
2018-06-09T18:32:40.692Z,10.23
2018-06-09T18:35:08.719Z,9.30
2018-06-09T18:37:36.787Z,9.40
2018-06-09T18:40:04.891Z,9.05
2018-06-09T18:42:33.311Z,10.72
2018-06-09T18:45:01.399Z,9.78
2018-06-09T18:47:29.436Z,8.83
2018-06-09T18:49:57.510Z,8.38
2018-06-09T18:52:25.543Z,10.55
2018-06-09T18:54:53.555Z,8.10
2018-06-09T18:57:21.656Z,8.40
2018-06-09T18:59:49.724Z,8.00
2018-06-09T19:02:17.767Z,8.03
2018-06-09T19:04:45.818Z,8.00
2018-06-09T19:07:13.899Z,8.58
2018-06-09T19:09:41.924Z,8.30
2018-06-09T19:12:10.060Z,9.30
2018-06-09T19:14:38.172Z,8.20
2018-06-09T19:17:06.198Z,8.13
2018-06-09T19:19:34.244Z,9.55
2018-06-09T19:22:02.282Z,10.03
2018-06-09T19:24:30.587Z,8.18
2018-06-09T19:26:59.501Z,9.05
2018-06-09T19:29:27.946Z,8.30
2018-06-09T19:31:56.114Z,10.85
2018-06-09T19:34:24.560Z,9.30
2018-06-09T19:36:52.586Z,9.50
2018-06-09T19:39:21.208Z,8.95
2018-06-09T19:41:49.260Z,8.58
2018-06-09T19:44:17.532Z,8.93
2018-06-09T19:46:45.647Z,9.70
2018-06-09T19:49:13.684Z,8.48
2018-06-09T19:51:41.768Z,10.32
2018-06-09T19:54:09.824Z,12.07
2018-06-09T19:56:37.999Z,10.63
2018-06-09T19:59:06.258Z,10.05
2018-06-09T20:01:34.631Z,11.38
2018-06-09T20:04:03.035Z,10.00
2018-06-09T20:06:31.448Z,10.13
2018-06-09T20:08:59.851Z,9.75
2018-06-09T20:11:28.126Z,10.48
2018-06-09T20:13:56.564Z,9.90
2018-06-09T20:16:24.883Z,9.90
2018-06-09T20:18:52.939Z,10.23
2018-06-09T20:21:21.062Z,9.75
2018-06-09T20:23:49.454Z,9.83
2018-06-09T20:26:17.608Z,10.93
2018-06-09T20:28:45.893Z,10.63
2018-06-09T20:31:14.075Z,9.63
2018-06-09T20:33:42.316Z,11.05
2018-06-09T20:36:10.468Z,10.80
2018-06-09T20:38:38.693Z,11.83
2018-06-09T20:41:06.743Z,9.68
2018-06-09T20:43:35.175Z,9.70
2018-06-09T20:46:04.404Z,9.73
2018-06-09T20:48:32.948Z,10.43
2018-06-09T20:51:02.452Z,10.43
2018-06-09T20:53:31.349Z,10.48
2018-06-09T20:56:00.621Z,10.32
2018-06-09T20:58:43.510Z,10.35
2018-06-09T21:01:12.343Z,9.53
2018-06-09T21:03:40.591Z,11.38
2018-06-09T21:06:09.325Z,10.50
2018-06-09T21:08:37.763Z,10.55
2018-06-09T21:11:08.536Z,10.78
2018-06-09T21:13:37.514Z,9.35
2018-06-09T21:16:05.954Z,10.20
2018-06-09T21:18:34.242Z,9.28
2018-06-09T21:21:02.558Z,9.25
2018-06-09T21:23:33.417Z,11.73
2018-06-09T21:26:02.343Z,8.83
2018-06-09T21:28:41.823Z,10.10
2018-06-09T21:31:15.524Z,9.83
2018-06-09T21:34:00.622Z,11.48
2018-06-09T21:36:30.073Z,9.93
2018-06-09T21:39:00.143Z,9.93
2018-06-09T21:41:33.980Z,12.60
2018-06-09T21:44:12.254Z,10.90
2018-06-09T21:46:45.760Z,11.50
2018-06-09T21:49:14.107Z,11.57
2018-06-09T21:51:42.147Z,12.10
2018-06-09T21:54:10.185Z,12.20
2018-06-09T21:56:38.384Z,14.65
2018-06-09T21:59:06.807Z,13.43
2018-06-09T22:01:38.240Z,12.95
2018-06-09T22:04:06.875Z,13.08
2018-06-09T22:06:35.203Z,13.50
2018-06-09T22:09:04.692Z,13.18
2018-06-09T22:11:34.822Z,14.40
2018-06-09T22:14:03.013Z,14.53
2018-06-09T22:16:31.716Z,14.25
2018-06-09T22:18:59.955Z,14.05
2018-06-09T22:21:28.596Z,15.70
2018-06-09T22:23:56.807Z,15.13
2018-06-09T22:26:25.208Z,13.93
2018-06-09T22:28:53.632Z,15.40
2018-06-09T22:31:21.700Z,15.75
2018-06-09T22:33:49.757Z,16.67
2018-06-09T22:36:17.923Z,15.50
2018-06-09T22:38:46.000Z,16.95
2018-06-09T22:41:15.017Z,16.82
2018-06-09T22:43:43.072Z,20.02
2018-06-09T22:46:11.159Z,18.73
2018-06-09T22:48:39.268Z,20.27
2018-06-09T22:51:07.582Z,19.07
2018-06-09T22:53:35.775Z,20.80
2018-06-09T22:56:04.361Z,18.95
2018-06-09T22:58:33.670Z,19.17
2018-06-09T23:01:02.067Z,19.60
2018-06-09T23:03:30.616Z,18.85
2018-06-09T23:05:58.773Z,18.55
2018-06-09T23:08:27.009Z,18.90
2018-06-09T23:10:55.268Z,18.07
2018-06-09T23:13:23.564Z,18.05
2018-06-09T23:15:51.730Z,18.80
2018-06-09T23:18:19.777Z,20.68
2018-06-09T23:20:47.843Z,18.73
2018-06-09T23:23:15.903Z,18.35
2018-06-09T23:25:43.947Z,18.80
2018-06-09T23:28:12.032Z,18.65
2018-06-09T23:30:40.106Z,17.67
2018-06-09T23:33:08.276Z,20.35
2018-06-09T23:35:36.648Z,18.05
2018-06-09T23:38:04.828Z,19.05
2018-06-09T23:40:33.133Z,18.42
2018-06-09T23:43:01.531Z,21.27
2018-06-09T23:45:30.254Z,20.65
2018-06-09T23:47:58.633Z,19.30
2018-06-09T23:50:27.039Z,17.80
2018-06-09T23:52:55.373Z,20.97
2018-06-09T23:55:23.629Z,19.12
2018-06-09T23:57:51.734Z,21.85
